sensor_id;sensor_type;location;lat;lon;timestamp;temperature;humidity
5304;DHT22;2674;49.722;10.892;2023-06-26T00:01:20;18.00;1.00
5304;DHT22;2674;49.722;10.892;2023-06-26T00:03:46;17.90;1.00
5304;DHT22;2674;49.722;10.892;2023-06-26T00:06:13;17.80;1.00
5304;DHT22;2674;49.722;10.892;2023-06-26T00:08:39;17.80;1.00
5304;DHT22;2674;49.722;10.892;2023-06-26T00:11:05;17.70;1.00
5304;DHT22;2674;49.722;10.892;2023-06-26T00:13:31;17.70;1.00
5304;DHT22;2674;49.722;10.892;2023-06-26T00:15:57;17.70;1.00
5304;DHT22;2674;49.722;10.892;2023-06-26T00:18:23;17.70;1.00
5304;DHT22;2674;49.722;10.892;2023-06-26T00:20:50;17.70;1.00
5304;DHT22;2674;49.722;10.892;2023-06-26T00:23:16;17.70;1.00
5304;DHT22;2674;49.722;10.892;2023-06-26T00:25:43;17.70;1.00
5304;DHT22;2674;49.722;10.892;2023-06-26T00:28:10;17.60;1.00
5304;DHT22;2674;49.722;10.892;2023-06-26T00:30:36;17.60;1.00
5304;DHT22;2674;49.722;10.892;2023-06-26T00:33:02;17.60;1.00
5304;DHT22;2674;49.722;10.892;2023-06-26T00:35:28;17.60;1.00
5304;DHT22;2674;49.722;10.892;2023-06-26T00:37:54;17.50;1.00
5304;DHT22;2674;49.722;10.892;2023-06-26T00:40:19;17.50;1.00
5304;DHT22;2674;49.722;10.892;2023-06-26T00:42:45;17.40;1.00
5304;DHT22;2674;49.722;10.892;2023-06-26T00:45:11;17.40;1.00
5304;DHT22;2674;49.722;10.892;2023-06-26T00:47:37;17.30;1.00
5304;DHT22;2674;49.722;10.892;2023-06-26T00:50:04;17.30;1.00
5304;DHT22;2674;49.722;10.892;2023-06-26T00:52:31;17.20;1.00
5304;DHT22;2674;49.722;10.892;2023-06-26T00:54:57;17.10;1.00
5304;DHT22;2674;49.722;10.892;2023-06-26T00:57:23;17.10;1.00
5304;DHT22;2674;49.722;10.892;2023-06-26T00:59:50;17.10;1.00
5304;DHT22;2674;49.722;10.892;2023-06-26T01:02:16;17.00;1.00
5304;DHT22;2674;49.722;10.892;2023-06-26T01:04:47;17.00;1.00
5304;DHT22;2674;49.722;10.892;2023-06-26T01:07:14;17.00;1.00
5304;DHT22;2674;49.722;10.892;2023-06-26T01:09:41;17.00;1.00
5304;DHT22;2674;49.722;10.892;2023-06-26T01:12:07;17.00;1.00
5304;DHT22;2674;49.722;10.892;2023-06-26T01:14:36;16.90;2.30
5304;DHT22;2674;49.722;10.892;2023-06-26T01:17:03;16.90;1.10
5304;DHT22;2674;49.722;10.892;2023-06-26T01:19:30;16.90;3.20
5304;DHT22;2674;49.722;10.892;2023-06-26T01:22:24;16.90;5.10
5304;DHT22;2674;49.722;10.892;2023-06-26T01:27:55;16.80;5.70
5304;DHT22;2674;49.722;10.892;2023-06-26T01:30:21;16.70;3.50
5304;DHT22;2674;49.722;10.892;2023-06-26T01:32:49;16.70;8.10
5304;DHT22;2674;49.722;10.892;2023-06-26T01:35:16;16.60;8.30
5304;DHT22;2674;49.722;10.892;2023-06-26T01:37:42;16.60;9.00
5304;DHT22;2674;49.722;10.892;2023-06-26T01:40:09;16.60;8.10
5304;DHT22;2674;49.722;10.892;2023-06-26T01:42:35;16.60;6.30
5304;DHT22;2674;49.722;10.892;2023-06-26T01:45:15;16.60;6.20
5304;DHT22;2674;49.722;10.892;2023-06-26T01:47:45;16.50;9.00
5304;DHT22;2674;49.722;10.892;2023-06-26T01:50:26;16.50;13.50
5304;DHT22;2674;49.722;10.892;2023-06-26T01:53:02;16.40;12.60
5304;DHT22;2674;49.722;10.892;2023-06-26T01:55:55;16.80;14.10
5304;DHT22;2674;49.722;10.892;2023-06-26T01:58:25;16.40;16.00
5304;DHT22;2674;49.722;10.892;2023-06-26T02:00:51;16.40;15.60
5304;DHT22;2674;49.722;10.892;2023-06-26T02:03:17;16.30;14.80
5304;DHT22;2674;49.722;10.892;2023-06-26T02:05:43;16.30;13.70
5304;DHT22;2674;49.722;10.892;2023-06-26T02:08:10;16.30;16.60
5304;DHT22;2674;49.722;10.892;2023-06-26T02:10:36;16.20;18.20
5304;DHT22;2674;49.722;10.892;2023-06-26T02:13:02;16.20;16.90
5304;DHT22;2674;49.722;10.892;2023-06-26T02:15:27;16.20;17.90
5304;DHT22;2674;49.722;10.892;2023-06-26T02:17:53;16.20;22.80
5304;DHT22;2674;49.722;10.892;2023-06-26T02:20:19;16.20;20.10
5304;DHT22;2674;49.722;10.892;2023-06-26T02:22:45;16.20;21.10
5304;DHT22;2674;49.722;10.892;2023-06-26T02:25:11;16.10;16.90
5304;DHT22;2674;49.722;10.892;2023-06-26T02:27:38;16.10;17.10
5304;DHT22;2674;49.722;10.892;2023-06-26T02:30:04;16.10;11.40
5304;DHT22;2674;49.722;10.892;2023-06-26T02:32:30;16.10;12.30
5304;DHT22;2674;49.722;10.892;2023-06-26T02:34:56;16.00;7.00
5304;DHT22;2674;49.722;10.892;2023-06-26T02:37:22;16.10;2.10
5304;DHT22;2674;49.722;10.892;2023-06-26T02:39:48;16.10;1.00
5304;DHT22;2674;49.722;10.892;2023-06-26T02:42:14;16.00;1.00
5304;DHT22;2674;49.722;10.892;2023-06-26T02:44:40;16.00;5.60
5304;DHT22;2674;49.722;10.892;2023-06-26T02:47:06;16.00;5.80
5304;DHT22;2674;49.722;10.892;2023-06-26T02:49:32;16.00;3.60
5304;DHT22;2674;49.722;10.892;2023-06-26T02:51:58;16.00;4.00
5304;DHT22;2674;49.722;10.892;2023-06-26T02:54:23;16.00;5.60
5304;DHT22;2674;49.722;10.892;2023-06-26T02:56:49;16.00;2.20
5304;DHT22;2674;49.722;10.892;2023-06-26T02:59:15;16.00;4.40
5304;DHT22;2674;49.722;10.892;2023-06-26T03:01:41;16.00;1.00
5304;DHT22;2674;49.722;10.892;2023-06-26T03:04:07;16.00;1.00
5304;DHT22;2674;49.722;10.892;2023-06-26T03:06:33;16.00;1.00
5304;DHT22;2674;49.722;10.892;2023-06-26T03:09:00;16.00;1.00
5304;DHT22;2674;49.722;10.892;2023-06-26T03:11:25;16.00;1.00
5304;DHT22;2674;49.722;10.892;2023-06-26T03:13:51;16.00;1.00
5304;DHT22;2674;49.722;10.892;2023-06-26T03:16:17;16.00;1.00
5304;DHT22;2674;49.722;10.892;2023-06-26T03:18:43;16.00;1.00
5304;DHT22;2674;49.722;10.892;2023-06-26T03:21:09;16.00;1.00
5304;DHT22;2674;49.722;10.892;2023-06-26T03:23:35;15.90;1.00
5304;DHT22;2674;49.722;10.892;2023-06-26T03:26:01;15.90;1.00
5304;DHT22;2674;49.722;10.892;2023-06-26T03:28:27;15.90;1.00
5304;DHT22;2674;49.722;10.892;2023-06-26T03:30:52;15.90;2.40
5304;DHT22;2674;49.722;10.892;2023-06-26T03:33:18;15.90;1.00
5304;DHT22;2674;49.722;10.892;2023-06-26T03:35:44;15.90;1.00
5304;DHT22;2674;49.722;10.892;2023-06-26T03:38:10;15.90;3.00
5304;DHT22;2674;49.722;10.892;2023-06-26T03:40:36;15.90;5.40
5304;DHT22;2674;49.722;10.892;2023-06-26T03:43:02;15.90;5.80
5304;DHT22;2674;49.722;10.892;2023-06-26T03:45:28;15.90;6.10
5304;DHT22;2674;49.722;10.892;2023-06-26T03:47:54;15.90;8.30
5304;DHT22;2674;49.722;10.892;2023-06-26T03:50:20;15.90;7.20
5304;DHT22;2674;49.722;10.892;2023-06-26T03:52:46;15.90;8.80
5304;DHT22;2674;49.722;10.892;2023-06-26T03:55:12;15.90;11.00
5304;DHT22;2674;49.722;10.892;2023-06-26T03:57:38;15.90;3.40
5304;DHT22;2674;49.722;10.892;2023-06-26T04:00:04;15.90;1.00
5304;DHT22;2674;49.722;10.892;2023-06-26T04:02:34;16.00;5.50
5304;DHT22;2674;49.722;10.892;2023-06-26T04:05:01;16.00;1.00
5304;DHT22;2674;49.722;10.892;2023-06-26T04:07:26;16.00;1.00
5304;DHT22;2674;49.722;10.892;2023-06-26T04:09:52;16.10;1.00
5304;DHT22;2674;49.722;10.892;2023-06-26T04:12:18;16.10;1.00
5304;DHT22;2674;49.722;10.892;2023-06-26T04:14:44;16.10;1.00
5304;DHT22;2674;49.722;10.892;2023-06-26T04:17:10;16.10;1.00
5304;DHT22;2674;49.722;10.892;2023-06-26T04:19:36;16.20;2.20
5304;DHT22;2674;49.722;10.892;2023-06-26T04:22:02;16.20;1.00
5304;DHT22;2674;49.722;10.892;2023-06-26T04:24:28;16.30;1.00
5304;DHT22;2674;49.722;10.892;2023-06-26T04:26:54;16.60;2.60
5304;DHT22;2674;49.722;10.892;2023-06-26T04:29:23;16.90;1.00
5304;DHT22;2674;49.722;10.892;2023-06-26T04:36:54;18.30;1.00
5304;DHT22;2674;49.722;10.892;2023-06-26T04:39:20;18.70;1.00
5304;DHT22;2674;49.722;10.892;2023-06-26T04:41:46;19.10;1.00
5304;DHT22;2674;49.722;10.892;2023-06-26T04:44:12;19.50;1.00
5304;DHT22;2674;49.722;10.892;2023-06-26T04:46:38;19.80;1.00
5304;DHT22;2674;49.722;10.892;2023-06-26T04:49:07;20.10;1.00
5304;DHT22;2674;49.722;10.892;2023-06-26T04:51:33;20.40;1.00
5304;DHT22;2674;49.722;10.892;2023-06-26T04:53:59;20.70;1.00
5304;DHT22;2674;49.722;10.892;2023-06-26T04:56:25;21.00;1.00
5304;DHT22;2674;49.722;10.892;2023-06-26T04:58:51;21.10;1.00
5304;DHT22;2674;49.722;10.892;2023-06-26T05:01:17;21.20;1.00
5304;DHT22;2674;49.722;10.892;2023-06-26T05:03:42;21.30;1.00
5304;DHT22;2674;49.722;10.892;2023-06-26T05:06:08;21.50;1.00
5304;DHT22;2674;49.722;10.892;2023-06-26T05:08:34;21.70;1.00
5304;DHT22;2674;49.722;10.892;2023-06-26T05:11:00;21.80;1.00
5304;DHT22;2674;49.722;10.892;2023-06-26T05:13:26;21.80;1.00
5304;DHT22;2674;49.722;10.892;2023-06-26T05:15:52;22.00;1.00
5304;DHT22;2674;49.722;10.892;2023-06-26T05:18:18;22.30;1.00
5304;DHT22;2674;49.722;10.892;2023-06-26T05:20:45;22.40;1.00
5304;DHT22;2674;49.722;10.892;2023-06-26T05:23:11;22.50;1.00
5304;DHT22;2674;49.722;10.892;2023-06-26T05:25:38;22.70;1.00
5304;DHT22;2674;49.722;10.892;2023-06-26T05:28:04;22.80;1.00
5304;DHT22;2674;49.722;10.892;2023-06-26T05:30:36;22.90;1.00
5304;DHT22;2674;49.722;10.892;2023-06-26T05:33:03;23.00;1.00
5304;DHT22;2674;49.722;10.892;2023-06-26T05:35:30;23.10;1.00
5304;DHT22;2674;49.722;10.892;2023-06-26T05:37:57;23.30;1.00
5304;DHT22;2674;49.722;10.892;2023-06-26T05:40:23;23.50;1.00
5304;DHT22;2674;49.722;10.892;2023-06-26T05:42:50;23.60;1.00
5304;DHT22;2674;49.722;10.892;2023-06-26T05:45:16;23.70;1.00
5304;DHT22;2674;49.722;10.892;2023-06-26T05:47:42;23.80;1.00
5304;DHT22;2674;49.722;10.892;2023-06-26T05:50:09;24.00;1.00
5304;DHT22;2674;49.722;10.892;2023-06-26T05:52:36;23.80;1.00
5304;DHT22;2674;49.722;10.892;2023-06-26T05:55:08;23.80;1.00
5304;DHT22;2674;49.722;10.892;2023-06-26T05:57:35;23.90;1.00
5304;DHT22;2674;49.722;10.892;2023-06-26T06:00:03;24.00;1.00
5304;DHT22;2674;49.722;10.892;2023-06-26T06:02:31;24.10;1.00
5304;DHT22;2674;49.722;10.892;2023-06-26T06:04:57;24.10;1.00
5304;DHT22;2674;49.722;10.892;2023-06-26T06:07:22;24.20;1.00
5304;DHT22;2674;49.722;10.892;2023-06-26T06:09:48;24.20;1.00
5304;DHT22;2674;49.722;10.892;2023-06-26T06:12:14;24.30;1.00
5304;DHT22;2674;49.722;10.892;2023-06-26T06:14:43;24.40;1.00
5304;DHT22;2674;49.722;10.892;2023-06-26T06:17:09;24.40;1.00
5304;DHT22;2674;49.722;10.892;2023-06-26T06:19:34;24.50;1.00
5304;DHT22;2674;49.722;10.892;2023-06-26T06:22:00;24.50;1.00
5304;DHT22;2674;49.722;10.892;2023-06-26T06:24:26;24.40;1.00
5304;DHT22;2674;49.722;10.892;2023-06-26T06:26:52;24.40;1.00
5304;DHT22;2674;49.722;10.892;2023-06-26T06:29:17;24.30;1.00
5304;DHT22;2674;49.722;10.892;2023-06-26T06:31:45;24.40;1.00
5304;DHT22;2674;49.722;10.892;2023-06-26T06:34:11;24.30;1.00
5304;DHT22;2674;49.722;10.892;2023-06-26T06:36:37;24.30;1.00
5304;DHT22;2674;49.722;10.892;2023-06-26T06:39:03;24.30;1.00
5304;DHT22;2674;49.722;10.892;2023-06-26T06:41:29;24.40;1.00
5304;DHT22;2674;49.722;10.892;2023-06-26T06:43:54;24.40;1.00
5304;DHT22;2674;49.722;10.892;2023-06-26T06:46:20;24.50;1.00
5304;DHT22;2674;49.722;10.892;2023-06-26T06:48:46;24.50;1.00
5304;DHT22;2674;49.722;10.892;2023-06-26T06:51:12;24.50;1.00
5304;DHT22;2674;49.722;10.892;2023-06-26T06:53:38;24.50;1.00
5304;DHT22;2674;49.722;10.892;2023-06-26T06:56:04;24.60;1.00
5304;DHT22;2674;49.722;10.892;2023-06-26T06:58:30;24.70;1.00
5304;DHT22;2674;49.722;10.892;2023-06-26T07:00:59;24.80;1.00
5304;DHT22;2674;49.722;10.892;2023-06-26T07:03:28;25.00;1.00
5304;DHT22;2674;49.722;10.892;2023-06-26T07:05:54;25.00;1.00
5304;DHT22;2674;49.722;10.892;2023-06-26T07:08:20;25.10;1.00
5304;DHT22;2674;49.722;10.892;2023-06-26T07:10:46;25.10;1.00
5304;DHT22;2674;49.722;10.892;2023-06-26T07:13:12;25.20;1.00
5304;DHT22;2674;49.722;10.892;2023-06-26T07:15:38;25.30;1.00
5304;DHT22;2674;49.722;10.892;2023-06-26T07:18:04;25.40;1.00
5304;DHT22;2674;49.722;10.892;2023-06-26T07:20:30;25.60;1.00
5304;DHT22;2674;49.722;10.892;2023-06-26T07:22:55;25.70;1.00
5304;DHT22;2674;49.722;10.892;2023-06-26T07:25:21;25.90;1.00
5304;DHT22;2674;49.722;10.892;2023-06-26T07:27:47;26.00;1.00
5304;DHT22;2674;49.722;10.892;2023-06-26T07:30:13;26.10;1.00
5304;DHT22;2674;49.722;10.892;2023-06-26T07:32:55;26.20;1.00
5304;DHT22;2674;49.722;10.892;2023-06-26T07:35:21;26.30;1.00
5304;DHT22;2674;49.722;10.892;2023-06-26T07:37:47;26.30;1.00
5304;DHT22;2674;49.722;10.892;2023-06-26T07:40:13;26.40;1.00
5304;DHT22;2674;49.722;10.892;2023-06-26T07:42:39;26.50;1.00
5304;DHT22;2674;49.722;10.892;2023-06-26T07:45:06;26.70;1.00
5304;DHT22;2674;49.722;10.892;2023-06-26T07:47:39;26.80;1.00
5304;DHT22;2674;49.722;10.892;2023-06-26T07:50:06;27.00;1.00
5304;DHT22;2674;49.722;10.892;2023-06-26T07:52:32;27.00;1.00
5304;DHT22;2674;49.722;10.892;2023-06-26T07:54:58;27.10;1.00
5304;DHT22;2674;49.722;10.892;2023-06-26T07:57:24;27.10;1.00
5304;DHT22;2674;49.722;10.892;2023-06-26T07:59:50;27.10;1.00
5304;DHT22;2674;49.722;10.892;2023-06-26T08:02:16;27.30;1.00
5304;DHT22;2674;49.722;10.892;2023-06-26T08:04:43;27.40;1.00
5304;DHT22;2674;49.722;10.892;2023-06-26T08:07:09;27.50;1.00
5304;DHT22;2674;49.722;10.892;2023-06-26T08:09:34;27.60;1.00
5304;DHT22;2674;49.722;10.892;2023-06-26T08:12:01;27.70;1.00
5304;DHT22;2674;49.722;10.892;2023-06-26T08:14:27;27.80;1.00
5304;DHT22;2674;49.722;10.892;2023-06-26T08:16:53;27.90;1.00
5304;DHT22;2674;49.722;10.892;2023-06-26T08:19:18;28.00;1.00
5304;DHT22;2674;49.722;10.892;2023-06-26T08:21:45;28.10;1.00
5304;DHT22;2674;49.722;10.892;2023-06-26T08:24:12;28.20;1.00
5304;DHT22;2674;49.722;10.892;2023-06-26T08:26:48;28.30;1.00
5304;DHT22;2674;49.722;10.892;2023-06-26T08:29:14;28.30;1.00
5304;DHT22;2674;49.722;10.892;2023-06-26T08:31:41;28.30;1.00
5304;DHT22;2674;49.722;10.892;2023-06-26T08:34:08;28.40;1.00
5304;DHT22;2674;49.722;10.892;2023-06-26T08:36:34;28.40;1.00
5304;DHT22;2674;49.722;10.892;2023-06-26T08:39:00;28.60;1.00
5304;DHT22;2674;49.722;10.892;2023-06-26T08:41:26;28.70;1.00
5304;DHT22;2674;49.722;10.892;2023-06-26T08:43:52;28.90;1.00
5304;DHT22;2674;49.722;10.892;2023-06-26T08:46:19;29.10;1.00
5304;DHT22;2674;49.722;10.892;2023-06-26T08:49:12;29.20;1.00
5304;DHT22;2674;49.722;10.892;2023-06-26T08:51:42;29.40;1.00
5304;DHT22;2674;49.722;10.892;2023-06-26T08:54:12;29.40;1.00
5304;DHT22;2674;49.722;10.892;2023-06-26T08:56:42;29.50;1.00
5304;DHT22;2674;49.722;10.892;2023-06-26T08:59:13;29.60;1.00
5304;DHT22;2674;49.722;10.892;2023-06-26T09:01:40;29.60;1.00
5304;DHT22;2674;49.722;10.892;2023-06-26T09:04:06;29.60;1.00
5304;DHT22;2674;49.722;10.892;2023-06-26T09:06:33;29.70;1.00
5304;DHT22;2674;49.722;10.892;2023-06-26T09:08:59;29.80;1.00
5304;DHT22;2674;49.722;10.892;2023-06-26T09:11:25;29.80;1.00
5304;DHT22;2674;49.722;10.892;2023-06-26T09:13:51;30.00;1.00
5304;DHT22;2674;49.722;10.892;2023-06-26T09:16:17;30.10;1.00
5304;DHT22;2674;49.722;10.892;2023-06-26T09:18:46;30.10;1.00
5304;DHT22;2674;49.722;10.892;2023-06-26T09:21:12;30.10;1.00
5304;DHT22;2674;49.722;10.892;2023-06-26T09:23:40;30.10;1.00
5304;DHT22;2674;49.722;10.892;2023-06-26T09:26:07;30.00;1.00
5304;DHT22;2674;49.722;10.892;2023-06-26T09:28:33;29.80;1.00
5304;DHT22;2674;49.722;10.892;2023-06-26T09:31:07;29.90;1.00
5304;DHT22;2674;49.722;10.892;2023-06-26T09:33:38;30.00;1.00
5304;DHT22;2674;49.722;10.892;2023-06-26T09:36:08;30.20;1.00
5304;DHT22;2674;49.722;10.892;2023-06-26T09:38:35;30.50;1.00
5304;DHT22;2674;49.722;10.892;2023-06-26T09:41:03;30.60;1.00
5304;DHT22;2674;49.722;10.892;2023-06-26T09:43:29;30.70;1.00
5304;DHT22;2674;49.722;10.892;2023-06-26T09:45:56;30.90;1.00
5304;DHT22;2674;49.722;10.892;2023-06-26T09:48:22;31.10;1.00
5304;DHT22;2674;49.722;10.892;2023-06-26T09:50:48;31.30;1.00
5304;DHT22;2674;49.722;10.892;2023-06-26T09:53:15;31.40;1.00
5304;DHT22;2674;49.722;10.892;2023-06-26T09:55:41;31.60;1.00
5304;DHT22;2674;49.722;10.892;2023-06-26T09:58:11;31.80;1.00
5304;DHT22;2674;49.722;10.892;2023-06-26T10:00:43;31.80;1.00
5304;DHT22;2674;49.722;10.892;2023-06-26T10:03:12;31.90;1.00
5304;DHT22;2674;49.722;10.892;2023-06-26T10:05:39;31.90;1.00
5304;DHT22;2674;49.722;10.892;2023-06-26T10:08:06;31.70;1.00
5304;DHT22;2674;49.722;10.892;2023-06-26T10:10:34;31.70;1.00
5304;DHT22;2674;49.722;10.892;2023-06-26T10:13:06;31.50;1.00
5304;DHT22;2674;49.722;10.892;2023-06-26T10:15:34;31.40;1.00
5304;DHT22;2674;49.722;10.892;2023-06-26T10:18:00;31.60;1.00
5304;DHT22;2674;49.722;10.892;2023-06-26T10:20:27;31.70;1.00
5304;DHT22;2674;49.722;10.892;2023-06-26T10:22:53;31.70;1.00
5304;DHT22;2674;49.722;10.892;2023-06-26T10:25:21;31.70;1.00
5304;DHT22;2674;49.722;10.892;2023-06-26T10:27:54;31.80;1.00
5304;DHT22;2674;49.722;10.892;2023-06-26T10:30:24;31.70;1.00
5304;DHT22;2674;49.722;10.892;2023-06-26T10:32:52;31.60;1.00
5304;DHT22;2674;49.722;10.892;2023-06-26T10:35:19;31.70;1.00
5304;DHT22;2674;49.722;10.892;2023-06-26T10:37:49;31.70;1.00
5304;DHT22;2674;49.722;10.892;2023-06-26T10:40:22;31.70;1.00
5304;DHT22;2674;49.722;10.892;2023-06-26T10:42:50;31.80;1.00
5304;DHT22;2674;49.722;10.892;2023-06-26T10:45:18;31.90;1.00
5304;DHT22;2674;49.722;10.892;2023-06-26T10:47:48;32.00;1.00
5304;DHT22;2674;49.722;10.892;2023-06-26T10:50:22;32.20;1.00
5304;DHT22;2674;49.722;10.892;2023-06-26T10:53:15;32.30;1.00
5304;DHT22;2674;49.722;10.892;2023-06-26T10:55:59;32.50;1.00
5304;DHT22;2674;49.722;10.892;2023-06-26T10:58:41;32.50;1.00
5304;DHT22;2674;49.722;10.892;2023-06-26T11:01:21;32.60;1.00
5304;DHT22;2674;49.722;10.892;2023-06-26T11:06:23;32.50;1.00
5304;DHT22;2674;49.722;10.892;2023-06-26T11:08:49;32.60;1.00
5304;DHT22;2674;49.722;10.892;2023-06-26T11:11:20;32.70;1.00
5304;DHT22;2674;49.722;10.892;2023-06-26T11:13:47;32.80;1.00
5304;DHT22;2674;49.722;10.892;2023-06-26T11:16:14;32.80;1.00
5304;DHT22;2674;49.722;10.892;2023-06-26T11:18:41;32.80;1.00
5304;DHT22;2674;49.722;10.892;2023-06-26T11:21:08;32.80;1.00
5304;DHT22;2674;49.722;10.892;2023-06-26T11:23:36;32.70;1.00
5304;DHT22;2674;49.722;10.892;2023-06-26T11:28:52;32.40;1.00
5304;DHT22;2674;49.722;10.892;2023-06-26T11:31:36;32.60;1.00
5304;DHT22;2674;49.722;10.892;2023-06-26T11:34:13;32.50;1.00
5304;DHT22;2674;49.722;10.892;2023-06-26T11:36:40;32.70;1.00
5304;DHT22;2674;49.722;10.892;2023-06-26T11:39:08;32.70;1.00
5304;DHT22;2674;49.722;10.892;2023-06-26T11:41:38;32.90;1.00
5304;DHT22;2674;49.722;10.892;2023-06-26T11:44:07;33.00;1.00
5304;DHT22;2674;49.722;10.892;2023-06-26T11:46:34;33.10;1.00
5304;DHT22;2674;49.722;10.892;2023-06-26T11:49:07;32.80;1.00
5304;DHT22;2674;49.722;10.892;2023-06-26T11:51:35;32.70;1.00
5304;DHT22;2674;49.722;10.892;2023-06-26T11:54:04;32.60;1.00
5304;DHT22;2674;49.722;10.892;2023-06-26T11:56:30;32.70;1.00
5304;DHT22;2674;49.722;10.892;2023-06-26T12:01:25;32.90;1.00
5304;DHT22;2674;49.722;10.892;2023-06-26T12:03:59;33.10;1.00
5304;DHT22;2674;49.722;10.892;2023-06-26T12:06:27;33.20;1.00
5304;DHT22;2674;49.722;10.892;2023-06-26T12:08:53;33.40;1.00
5304;DHT22;2674;49.722;10.892;2023-06-26T12:11:21;33.40;1.00
5304;DHT22;2674;49.722;10.892;2023-06-26T12:13:48;33.30;1.00
5304;DHT22;2674;49.722;10.892;2023-06-26T12:16:14;33.30;1.00
5304;DHT22;2674;49.722;10.892;2023-06-26T12:18:40;33.30;1.00
5304;DHT22;2674;49.722;10.892;2023-06-26T12:21:06;33.40;1.00
5304;DHT22;2674;49.722;10.892;2023-06-26T12:23:33;33.70;1.00
5304;DHT22;2674;49.722;10.892;2023-06-26T12:26:19;33.80;1.00
5304;DHT22;2674;49.722;10.892;2023-06-26T12:28:45;33.90;1.00
5304;DHT22;2674;49.722;10.892;2023-06-26T12:31:20;34.00;1.00
5304;DHT22;2674;49.722;10.892;2023-06-26T12:33:48;33.80;1.00
5304;DHT22;2674;49.722;10.892;2023-06-26T12:36:14;34.00;1.00
5304;DHT22;2674;49.722;10.892;2023-06-26T12:38:41;34.00;1.00
5304;DHT22;2674;49.722;10.892;2023-06-26T12:41:16;34.00;1.00
5304;DHT22;2674;49.722;10.892;2023-06-26T12:43:42;33.80;1.00
5304;DHT22;2674;49.722;10.892;2023-06-26T12:46:08;33.80;1.00
5304;DHT22;2674;49.722;10.892;2023-06-26T12:48:44;34.00;1.00
5304;DHT22;2674;49.722;10.892;2023-06-26T12:51:14;34.00;1.00
5304;DHT22;2674;49.722;10.892;2023-06-26T12:53:40;34.00;1.00
5304;DHT22;2674;49.722;10.892;2023-06-26T12:56:08;34.00;1.00
5304;DHT22;2674;49.722;10.892;2023-06-26T12:58:34;34.00;1.00
5304;DHT22;2674;49.722;10.892;2023-06-26T13:01:06;34.00;1.00
5304;DHT22;2674;49.722;10.892;2023-06-26T13:03:40;34.20;1.00
5304;DHT22;2674;49.722;10.892;2023-06-26T13:06:06;34.40;1.00
5304;DHT22;2674;49.722;10.892;2023-06-26T13:08:33;34.20;1.00
5304;DHT22;2674;49.722;10.892;2023-06-26T13:10:59;33.70;1.00
5304;DHT22;2674;49.722;10.892;2023-06-26T13:13:25;33.30;1.00
5304;DHT22;2674;49.722;10.892;2023-06-26T13:15:51;32.90;1.00
5304;DHT22;2674;49.722;10.892;2023-06-26T13:18:17;32.70;1.00
5304;DHT22;2674;49.722;10.892;2023-06-26T13:20:43;32.40;1.00
5304;DHT22;2674;49.722;10.892;2023-06-26T13:23:09;32.20;1.00
5304;DHT22;2674;49.722;10.892;2023-06-26T13:25:35;32.10;1.00
5304;DHT22;2674;49.722;10.892;2023-06-26T13:28:00;32.10;1.00
5304;DHT22;2674;49.722;10.892;2023-06-26T13:30:26;32.00;1.00
5304;DHT22;2674;49.722;10.892;2023-06-26T13:32:52;31.80;1.00
5304;DHT22;2674;49.722;10.892;2023-06-26T13:35:18;31.80;1.00
5304;DHT22;2674;49.722;10.892;2023-06-26T13:37:44;32.00;1.00
5304;DHT22;2674;49.722;10.892;2023-06-26T13:40:11;32.10;1.00
5304;DHT22;2674;49.722;10.892;2023-06-26T13:42:37;32.10;1.00
5304;DHT22;2674;49.722;10.892;2023-06-26T13:45:03;32.20;1.00
5304;DHT22;2674;49.722;10.892;2023-06-26T13:47:29;32.20;1.00
5304;DHT22;2674;49.722;10.892;2023-06-26T13:49:55;32.20;1.00
5304;DHT22;2674;49.722;10.892;2023-06-26T13:52:21;32.30;1.00
5304;DHT22;2674;49.722;10.892;2023-06-26T13:54:48;32.40;1.00
5304;DHT22;2674;49.722;10.892;2023-06-26T13:57:14;32.40;1.00
5304;DHT22;2674;49.722;10.892;2023-06-26T13:59:40;32.60;1.00
5304;DHT22;2674;49.722;10.892;2023-06-26T14:02:07;32.70;1.00
5304;DHT22;2674;49.722;10.892;2023-06-26T14:04:33;32.90;1.00
5304;DHT22;2674;49.722;10.892;2023-06-26T14:06:59;33.00;1.00
5304;DHT22;2674;49.722;10.892;2023-06-26T14:09:25;33.20;1.00
5304;DHT22;2674;49.722;10.892;2023-06-26T14:11:51;33.30;1.00
5304;DHT22;2674;49.722;10.892;2023-06-26T14:14:17;33.40;1.00
5304;DHT22;2674;49.722;10.892;2023-06-26T14:16:43;33.40;1.00
5304;DHT22;2674;49.722;10.892;2023-06-26T14:19:09;33.40;1.00
5304;DHT22;2674;49.722;10.892;2023-06-26T14:21:40;33.40;1.00
5304;DHT22;2674;49.722;10.892;2023-06-26T14:24:06;33.40;1.00
5304;DHT22;2674;49.722;10.892;2023-06-26T14:26:32;33.40;1.00
5304;DHT22;2674;49.722;10.892;2023-06-26T14:28:59;33.40;1.00
5304;DHT22;2674;49.722;10.892;2023-06-26T14:31:26;33.30;1.00
5304;DHT22;2674;49.722;10.892;2023-06-26T14:33:52;33.40;1.00
5304;DHT22;2674;49.722;10.892;2023-06-26T14:36:18;33.40;1.00
5304;DHT22;2674;49.722;10.892;2023-06-26T14:38:45;33.20;1.00
5304;DHT22;2674;49.722;10.892;2023-06-26T14:41:11;33.10;1.00
5304;DHT22;2674;49.722;10.892;2023-06-26T14:43:38;32.90;1.00
5304;DHT22;2674;49.722;10.892;2023-06-26T14:46:04;32.70;1.00
5304;DHT22;2674;49.722;10.892;2023-06-26T14:48:30;32.60;1.00
5304;DHT22;2674;49.722;10.892;2023-06-26T14:50:56;32.40;1.00
5304;DHT22;2674;49.722;10.892;2023-06-26T14:53:22;32.30;1.00
5304;DHT22;2674;49.722;10.892;2023-06-26T14:55:48;32.00;1.00
5304;DHT22;2674;49.722;10.892;2023-06-26T14:58:14;31.70;1.00
5304;DHT22;2674;49.722;10.892;2023-06-26T15:00:39;31.40;1.00
5304;DHT22;2674;49.722;10.892;2023-06-26T15:03:05;31.30;1.00
5304;DHT22;2674;49.722;10.892;2023-06-26T15:05:31;31.00;1.00
5304;DHT22;2674;49.722;10.892;2023-06-26T15:07:57;30.70;1.00
5304;DHT22;2674;49.722;10.892;2023-06-26T15:10:23;30.50;1.00
5304;DHT22;2674;49.722;10.892;2023-06-26T15:12:49;30.40;1.00
5304;DHT22;2674;49.722;10.892;2023-06-26T15:15:15;30.30;1.00
5304;DHT22;2674;49.722;10.892;2023-06-26T15:17:42;30.40;1.00
5304;DHT22;2674;49.722;10.892;2023-06-26T15:20:08;30.40;1.00
5304;DHT22;2674;49.722;10.892;2023-06-26T15:22:34;30.40;1.00
5304;DHT22;2674;49.722;10.892;2023-06-26T15:25:00;30.30;1.00
5304;DHT22;2674;49.722;10.892;2023-06-26T15:27:25;30.30;1.00
5304;DHT22;2674;49.722;10.892;2023-06-26T15:29:51;30.30;1.00
5304;DHT22;2674;49.722;10.892;2023-06-26T15:32:17;30.30;1.00
5304;DHT22;2674;49.722;10.892;2023-06-26T15:34:43;30.40;1.00
5304;DHT22;2674;49.722;10.892;2023-06-26T15:37:09;30.40;1.00
5304;DHT22;2674;49.722;10.892;2023-06-26T15:39:35;30.60;1.00
5304;DHT22;2674;49.722;10.892;2023-06-26T15:42:00;30.70;1.00
5304;DHT22;2674;49.722;10.892;2023-06-26T15:44:28;30.70;1.00
5304;DHT22;2674;49.722;10.892;2023-06-26T15:46:54;30.60;1.00
5304;DHT22;2674;49.722;10.892;2023-06-26T15:49:19;30.60;1.00
5304;DHT22;2674;49.722;10.892;2023-06-26T15:51:45;30.70;1.00
5304;DHT22;2674;49.722;10.892;2023-06-26T15:54:13;30.70;1.00
5304;DHT22;2674;49.722;10.892;2023-06-26T15:56:38;30.80;1.00
5304;DHT22;2674;49.722;10.892;2023-06-26T15:59:05;30.80;1.00
5304;DHT22;2674;49.722;10.892;2023-06-26T16:01:31;30.80;1.00
5304;DHT22;2674;49.722;10.892;2023-06-26T16:03:57;30.60;1.00
5304;DHT22;2674;49.722;10.892;2023-06-26T16:06:22;30.50;1.00
5304;DHT22;2674;49.722;10.892;2023-06-26T16:08:48;30.40;1.00
5304;DHT22;2674;49.722;10.892;2023-06-26T16:11:14;30.30;1.00
5304;DHT22;2674;49.722;10.892;2023-06-26T16:13:40;30.30;1.00
5304;DHT22;2674;49.722;10.892;2023-06-26T16:16:06;30.30;1.00